Data for 06/16/2006

Time Sea-Level Adjusted Pressure Absolute Pressure Temperature Relative Humidity Dew Point   
(mb) (inHg) (mb) (inHg) (C) (F) (%) (C) (F)
00:05 1016 30 845 24.95 13.5 56.3 45 1.7 35.1
00:10 1016 30 845 24.95 13.1 55.5 46 1.9 35.4
00:15 1016 30 845 24.95 12.9 55.1 47 2 35.5
00:20 1015 29.97 845 24.95 12.6 54.6 49 2.1 35.8
00:25 1015 29.97 845 24.95 12.6 54.6 48 1.9 35.4
00:30 1015 29.97 845 24.95 12.8 55 46 1.4 34.5
00:35 1015 29.97 845 24.95 13.1 55.6 44 1.3 34.3
00:40 1015 29.97 845 24.95 13.3 55.9 45 1.5 34.7
00:45 1015 29.97 844 24.92 13.2 55.7 45 1.6 35
00:50 1015 29.97 844 24.92 13.1 55.5 47 2.1 35.8
00:55 1015 29.97 844 24.92 12.9 55.2 48 2.1 35.7
01:00 1015 29.97 844 24.92 12.6 54.7 51 2.8 37.1
01:05 1015 29.97 844 24.92 12.3 54.2 49 1.8 35.3
01:10 1015 29.97 844 24.92 12.5 54.5 49 2 35.7
01:15 1015 29.97 844 24.92 12.6 54.7 49 2.2 35.9
01:20 1015 29.97 844 24.92 12.7 54.8 48 2 35.6
01:25 1015 29.97 844 24.92 12.7 54.8 49 2.2 35.9
01:30 1015 29.97 844 24.92 12.6 54.7 49 2.3 36.2
01:35 1015 29.97 844 24.92 12.5 54.5 50 2.4 36.3
01:40 1015 29.97 844 24.92 12.4 54.3 52 2.8 37.1
01:45 1015 29.97 844 24.92 12.1 53.8 54 3.1 37.5
01:50 1015 29.97 844 24.92 11.3 52.3 59 3.7 38.6
01:55 1015 29.97 844 24.92 10.7 51.3 58 2.9 37.1
02:00 1015 29.97 844 24.92 10.9 51.6 57 2.7 36.9
02:05 1015 29.97 844 24.92 11.1 51.9 58 3.1 37.5
02:10 1015 29.97 845 24.95 10.6 51.1 62 3.7 38.7
02:15 1015 29.97 844 24.92 10 50 62 3 37.5
02:20 1015 29.97 845 24.95 10.1 50.1 62 3.1 37.6
02:25 1015 29.97 844 24.92 10.1 50.1 62 3.1 37.5
02:30 1015 29.97 845 24.95 10.3 50.5 61 3.2 37.7
02:35 1015 29.97 844 24.92 10.3 50.5 62 3.4 38.2
02:40 1015 29.97 845 24.95 10.1 50.1 65 3.9 39
02:45 1015 29.97 845 24.95 9.9 49.9 66 3.9 39.1
02:50 1015 29.97 845 24.95 9.9 49.7 65 3.7 38.7
02:55 1015 29.97 845 24.95 9.9 49.8 68 4.3 39.7
03:00 1015 29.97 845 24.95 9.7 49.5 67 4 39.1
03:05 1015 29.97 845 24.95 9.6 49.3 67 3.9 38.9
03:10 1015 29.97 845 24.95 9.6 49.3 67 3.8 38.8
03:15 1016 30 845 24.95 9.7 49.5 63 3 37.5
03:20 1016 30 845 24.95 10 50 63 3.3 37.9
03:25 1016 30 845 24.95 10 49.9 63 3.2 37.8
03:30 1016 30 845 24.95 10.2 50.4 61 3.1 37.6
03:35 1016 30 845 24.95 10.2 50.4 61 3.1 37.6
03:40 1016 30 845 24.95 10.3 50.5 61 3.1 37.6
03:45 1016 30 845 24.95 10.3 50.5 62 3.4 38
03:50 1016 30 845 24.95 10.2 50.4 62 3.2 37.8
03:55 1016 30 845 24.95 10.4 50.7 61 3.2 37.7
04:00 1016 30 845 24.95 10.4 50.7 62 3.4 38.1
04:05 1016 30 845 24.95 10.3 50.5 62 3.4 38.1
04:10 1016 30 845 24.95 10.3 50.5 63 3.5 38.3
04:15 1016 30 845 24.95 10.1 50.2 65 3.8 38.8
04:20 1016 30 845 24.95 9.4 49 69 4.2 39.5
04:25 1016 30 845 24.95 8.9 48 69 3.5 38.4
04:30 1016 30 845 24.95 8.9 48 67 3.2 37.7
04:35 1016 30 845 24.95 9 48.2 66 2.9 37.3
04:40 1016 30 845 24.95 9.1 48.3 65 2.8 37.1
04:45 1016 30 845 24.95 9.1 48.3 65 2.9 37.2
04:50 1016 30 845 24.95 8.8 47.9 66 2.9 37.2
04:55 1016 30 845 24.95 8.6 47.5 67 2.9 37.2
05:00 1016 30 845 24.95 8.4 47.1 68 2.9 37.3
05:05 1016 30 845 24.95 8.3 47 67 2.6 36.7
05:10 1016 30 845 24.95 8.5 47.2 66 2.6 36.6
05:15 1016 30 845 24.95 8.7 47.7 66 2.7 36.9
05:20 1016 30 845 24.95 8.4 47.1 70 3.3 38
05:25 1016 30 845 24.95 7.7 45.9 69 2.5 36.5
05:30 1016 30 845 24.95 8.1 46.5 69 2.7 36.9
05:35 1016 30 845 24.95 8.1 46.6 69 2.7 36.9
05:40 1016 30 845 24.95 8.2 46.7 69 2.8 37
05:45 1016 30 845 24.95 8.2 46.8 68 2.8 37
05:50 1016 30 845 24.95 8.1 46.6 69 2.7 36.8
05:55 1016 30 845 24.95 8.1 46.6 68 2.6 36.7
06:00 1016 30 845 24.95 8.5 47.4 65 2.4 36.3
06:05 1016 30 846 24.98 9.2 48.5 62 2.3 36.1
06:10 1016 30 846 24.98 9.6 49.3 62 2.6 36.7
06:15 1017 30.03 846 24.98 9.4 48.9 64 3 37.5
06:20 1017 30.03 846 24.98 8.7 47.7 66 2.8 37.1
06:25 1017 30.03 846 24.98 8.6 47.4 66 2.7 36.8
06:30 1017 30.03 846 24.98 8.8 47.8 65 2.7 36.9
06:35 1017 30.03 846 24.98 9 48.1 66 3 37.5
06:40 1017 30.03 846 24.98 8.8 47.9 69 3.5 38.3
06:45 1017 30.03 846 24.98 8.3 46.9 71 3.3 37.9
06:50 1017 30.03 846 24.98 8 46.4 71 3.1 37.6
06:55 1017 30.03 846 24.98 8.1 46.6 70 3 37.4
07:00 1017 30.03 846 24.98 8.6 47.5 68 3 37.3
07:05 1017 30.03 846 24.98 8.9 47.9 66 2.9 37.2
07:10 1017 30.03 846 24.98 9.2 48.5 64 2.8 37
07:15 1017 30.03 846 24.98 9.6 49.2 63 2.8 37.1
07:20 1017 30.03 846 24.98 10.3 50.5 59 2.7 36.8
07:25 1017 30.03 846 24.98 11.4 52.5 55 2.6 36.7
07:30 1017 30.03 846 24.98 12.1 53.8 53 3 37.4
07:35 1017 30.03 846 24.98 12.6 54.7 52 3.1 37.5
07:40 1017 30.03 846 24.98 12.8 55.1 52 3.2 37.8
07:45 1017 30.03 847 25.01 13 55.5 51 3.3 37.9
07:50 1017 30.03 847 25.01 12.8 55.1 52 3.4 38.1
07:55 1017 30.03 847 25.01 12.7 54.9 53 3.5 38.4
08:00 1018 30.06 847 25.01 12.4 54.2 53 3.2 37.8
08:05 1018 30.06 847 25.01 12.3 54.1 54 3.4 38
08:10 1018 30.06 847 25.01 12.4 54.2 52 2.9 37.3
08:15 1018 30.06 847 25.01 12.8 55 51 2.9 37.2
08:20 1018 30.06 847 25.01 12.8 55.1 52 3.3 38
08:25 1018 30.06 847 25.01 12.3 54.1 54 3.3 37.9
08:30 1018 30.06 847 25.01 11.9 53.4 54 2.8 37
08:35 1018 30.06 847 25.01 11.7 53.1 55 3 37.3
08:40 1018 30.06 847 25.01 11.8 53.2 54 2.9 37.2
08:45 1018 30.06 847 25.01 11.9 53.5 56 3.4 38.1
08:50 1018 30.06 847 25.01 12.1 53.7 56 3.6 38.5
08:55 1018 30.06 847 25.01 12.2 54 55 3.4 38.2
09:00 1018 30.06 847 25.01 12.4 54.2 55 3.6 38.4
09:05 1018 30.06 847 25.01 12.3 54.1 54 3.4 38.2
09:10 1018 30.06 847 25.01 13.4 56.2 51 3.5 38.3
09:15 1018 30.06 847 25.01 14.1 57.4 49 3.7 38.7
09:20 1018 30.06 847 25.01 14.4 57.9 49 4 39.3
09:25 1018 30.06 847 25.01 14.6 58.3 49 4.1 39.5
09:30 1018 30.06 847 25.01 15 59 46 3.6 38.4
09:35 1018 30.06 847 25.01 15 59.1 46 3.7 38.7
09:40 1018 30.06 847 25.01 15.1 59.1 47 3.9 39
09:45 1018 30.06 847 25.01 15 59 46 3.6 38.5
09:50 1018 30.06 847 25.01 15.2 59.4 46 3.6 38.5
09:55 1018 30.06 847 25.01 15.4 59.7 47 4.1 39.3
10:00 1018 30.06 847 25.01 15.5 59.9 44 3.5 38.4
10:05 1018 30.06 847 25.01 15.7 60.3 45 3.8 38.9
10:10 1018 30.06 847 25.01 15.7 60.3 43 3.3 37.9
10:15 1018 30.06 847 25.01 15.8 60.4 43 3.3 37.9
10:20 1018 30.06 847 25.01 16 60.7 43 3.6 38.5
10:25 1018 30.06 847 25.01 15.9 60.6 43 3.5 38.2
10:30 1018 30.06 847 25.01 16.3 61.3 42 3.3 38
10:35 1018 30.06 847 25.01 16.1 61.1 43 3.5 38.3
10:40 1018 30.06 847 25.01 16.2 61.1 42 3.3 37.9
10:45 1018 30.06 847 25.01 16 60.8 43 3.4 38.2
10:50 1018 30.06 847 25.01 16.2 61.1 42 3.4 38.2
10:55 1018 30.06 847 25.01 16.2 61.1 42 3.2 37.8
11:00 1018 30.06 847 25.01 16.1 61 43 3.6 38.5
11:05 1018 30.06 847 25.01 15.8 60.4 43 3.4 38.2
11:10 1018 30.06 847 25.01 16.5 61.6 41 3.2 37.7
11:15 1018 30.06 847 25.01 16.8 62.2 41 3.6 38.5
11:20 1018 30.06 847 25.01 17.1 62.8 39 3.3 38
11:25 1017 30.03 847 25.01 16.9 62.3 41 3.5 38.3
11:30 1017 30.03 847 25.01 16.3 61.3 41 3.2 37.7
11:35 1017 30.03 847 25.01 16.9 62.4 40 3.3 37.9
11:40 1017 30.03 847 25.01 17.5 63.5 40 3.7 38.7
11:45 1017 30.03 847 25.01 17.1 62.9 40 3.6 38.5
11:50 1017 30.03 847 25.01 17.1 62.7 40 3.5 38.3
11:55 1017 30.03 847 25.01 17.6 63.6 39 3.5 38.3
12:00 1017 30.03 847 25.01 17.6 63.6 40 3.8 38.8
12:05 1017 30.03 847 25.01 17.8 64.1 37 3.2 37.8
12:10 1017 30.03 847 25.01 18.1 64.7 37 3.3 38
12:15 1017 30.03 846 24.98 18.2 64.7 35 2.5 36.5
12:20 1017 30.03 846 24.98 18 64.5 37 3.1 37.6
12:25 1017 30.03 846 24.98 18.1 64.5 36 3.1 37.5
12:30 1017 30.03 846 24.98 18.2 64.8 37 3.6 38.4
12:35 1017 30.03 846 24.98 17.9 64.2 39 3.8 38.9
12:40 1017 30.03 846 24.98 18.7 65.6 34 2.5 36.5
12:45 1017 30.03 846 24.98 19.1 66.4 33 2.4 36.4
12:50 1017 30.03 846 24.98 19.2 66.5 32 2.2 36
12:55 1017 30.03 846 24.98 19.1 66.4 31 1.5 34.7
13:00 1017 30.03 846 24.98 18.9 66.1 31 1.8 35.2
13:05 1017 30.03 846 24.98 19.2 66.5 32 2 35.7
13:10 1017 30.03 846 24.98 18.9 66.1 33 2.5 36.5
13:15 1017 30.03 846 24.98 19 66.2 32 2.3 36.1
13:20 1017 30.03 846 24.98 18.9 66 32 1.9 35.4
13:25 1017 30.03 846 24.98 19.3 66.7 30 1.6 34.8
13:30 1017 30.03 846 24.98 19.4 66.9 31 1.9 35.4
13:35 1017 30.03 846 24.98 19.8 67.7 30 2 35.7
13:40 1017 30.03 846 24.98 20.4 68.6 27 0.9 33.6
13:45 1017 30.03 846 24.98 20.5 68.8 27 1.1 33.9
13:50 1017 30.03 846 24.98 20.5 69 29 2 35.6
13:55 1017 30.03 846 24.98 20.6 69.1 27 1.3 34.4
14:00 1017 30.03 846 24.98 20.7 69.3 28 1.6 34.8
14:05 1017 30.03 846 24.98 20.9 69.6 27 1.2 34.1
14:10 1017 30.03 846 24.98 20.8 69.5 26 0.6 33.2
14:15 1017 30.03 846 24.98 20.5 68.8 27 1.2 34.1
14:20 1017 30.03 846 24.98 20.3 68.5 28 1.2 34.2
14:25 1017 30.03 846 24.98 20 68 29 1.6 34.9
14:30 1017 30.03 846 24.98 20.5 68.8 28 1.6 34.9
14:35 1017 30.03 846 24.98 20.7 69.3 28 1.7 35.1
14:40 1017 30.03 846 24.98 20.6 69.2 29 2.1 35.8
14:45 1017 30.03 846 24.98 20 68 29 1.5 34.8
14:50 1017 30.03 846 24.98 20 68 27 0.5 32.9
14:55 1017 30.03 846 24.98 20.2 68.4 27 0.9 33.5
15:00 1017 30.03 846 24.98 20.5 68.8 28 1.3 34.4
15:05 1017 30.03 846 24.98 20 68.1 28 1.3 34.3
15:10 1017 30.03 846 24.98 20.3 68.5 27 1 33.8
15:15 1017 30.03 846 24.98 20.8 69.4 30 2.7 36.9
15:20 1017 30.03 846 24.98 21.4 70.6 29 2.6 36.7
15:25 1017 30.03 846 24.98 21.9 71.5 29 3.3 38
15:30 1017 30.03 846 24.98 21.4 70.5 28 2.4 36.2
15:35 1017 30.03 846 24.98 21.2 70.1 27 1.9 35.4
15:40 1017 30.03 846 24.98 21.1 69.9 29 2.7 36.8
15:45 1017 30.03 846 24.98 21.4 70.4 29 2.6 36.6
15:50 1017 30.03 846 24.98 21.5 70.7 27 1.7 35
15:55 1017 30.03 846 24.98 21.2 70.1 25 0.7 33.2
16:00 1017 30.03 846 24.98 21 69.8 27 1.6 34.9
16:05 1017 30.03 846 24.98 21 69.8 27 1.4 34.5
16:10 1017 30.03 846 24.98 21.7 71 26 1.6 34.8
16:15 1017 30.03 846 24.98 21.5 70.7 25 0.8 33.4
16:20 1017 30.03 846 24.98 21.5 70.6 25 0.7 33.3
16:25 1017 30.03 846 24.98 21.8 71.2 24 0.6 33
16:30 1016 30 846 24.98 21.8 71.2 25 1.2 34.1
16:35 1016 30 846 24.98 21.8 71.3 24 0.8 33.4
16:40 1016 30 846 24.98 21.5 70.7 24 0.3 32.6
16:45 1016 30 846 24.98 21.5 70.6 25 0.5 33
16:50 1016 30 846 24.98 22 71.7 24 0.7 33.3
16:55 1016 30 846 24.98 21.8 71.2 24 0.8 33.4
17:00 1016 30 846 24.98 21.8 71.3 25 0.9 33.6
17:05 1016 30 846 24.98 21.7 71 23 0.1 32.1
17:10 1016 30 846 24.98 22 71.5 24 0.4 32.8
17:15 1016 30 846 24.98 22.2 71.9 25 1.3 34.4
17:20 1016 30 846 24.98 22.5 72.6 24 1 33.8
17:25 1016 30 845 24.95 22.4 72.4 25 1.5 34.6
17:30 1016 30 845 24.95 22.4 72.3 24 0.9 33.6
17:35 1016 30 845 24.95 22.3 72.2 24 0.9 33.7
17:40 1016 30 845 24.95 22.1 71.7 25 1.1 33.9
17:45 1016 30 845 24.95 22.2 72 24 1 33.9
17:50 1016 30 845 24.95 22.2 71.9 24 1 33.9
17:55 1016 30 845 24.95 22 71.6 25 1 33.8
18:00 1016 30 845 24.95 22 71.5 25 1.2 34.1
18:05 1016 30 845 24.95 22.1 71.7 26 1.7 35.1
18:10 1016 30 845 24.95 22.1 71.9 26 1.7 35.1
18:15 1016 30 845 24.95 22.4 72.3 24 1.1 34
18:20 1016 30 845 24.95 22.6 72.7 25 1.8 35.2
18:25 1016 30 845 24.95 22.1 71.8 25 1.4 34.5
18:30 1016 30 845 24.95 21.8 71.3 25 1.3 34.4
18:35 1016 30 845 24.95 21.7 71.1 26 1.8 35.2
18:40 1016 30 845 24.95 21.8 71.2 27 2.1 35.8
18:45 1016 30 845 24.95 21.9 71.4 25 1 33.8
18:50 1016 30 845 24.95 21.8 71.2 25 1.1 33.9
18:55 1016 30 845 24.95 21.5 70.7 27 1.8 35.2
19:00 1016 30 845 24.95 21.6 70.9 27 2.1 35.7
19:05 1016 30 845 24.95 21.8 71.3 26 1.4 34.5
19:10 1016 30 845 24.95 21.7 71.1 24 0.7 33.3
19:15 1016 30 845 24.95 21.4 70.5 25 0.9 33.5
19:20 1016 30 845 24.95 21.5 70.7 26 1.4 34.6
19:25 1016 30 845 24.95 21.6 70.8 26 1.6 34.9
19:30 1016 30 845 24.95 21.4 70.5 26 1.4 34.5
19:35 1016 30 845 24.95 20.9 69.5 28 1.7 35
19:40 1016 30 845 24.95 20.7 69.2 28 1.7 35.1
19:45 1016 30 845 24.95 20.8 69.4 28 1.6 34.8
19:50 1016 30 845 24.95 20.7 69.3 28 1.9 35.4
19:55 1016 30 845 24.95 20.5 68.8 30 2.4 36.2
20:00 1016 30 845 24.95 20.2 68.3 31 2.6 36.7
20:05 1016 30 845 24.95 20 67.9 31 2.3 36.1
20:10 1016 30 845 24.95 19.8 67.6 32 2.6 36.7
20:15 1016 30 845 24.95 19.7 67.4 33 3.1 37.6
20:20 1016 30 845 24.95 19.6 67.3 33 3.2 37.8
20:25 1016 30 845 24.95 19.4 66.9 35 3.6 38.5
20:30 1016 30 845 24.95 19.1 66.4 34 3.2 37.8
20:35 1016 30 845 24.95 19 66.2 33 2.5 36.5
20:40 1016 30 845 24.95 19 66.2 33 2.5 36.5
20:45 1016 30 845 24.95 18.9 66 34 2.7 36.9
20:50 1016 30 845 24.95 18.6 65.4 35 2.8 37
20:55 1016 30 845 24.95 18.4 65.1 35 2.7 36.9
21:00 1016 30 845 24.95 18.3 64.9 35 2.8 37.1
21:05 1016 30 845 24.95 18 64.5 37 3.4 38.1
21:10 1016 30 845 24.95 18 64.3 38 3.6 38.5
21:15 1016 30 845 24.95 17.8 64.1 38 3.3 37.9
21:20 1016 30 845 24.95 17.9 64.2 37 3.2 37.7
21:25 1016 30 845 24.95 17.9 64.2 38 3.6 38.5
21:30 1016 30 845 24.95 17.8 64 39 3.7 38.6
21:35 1016 30 845 24.95 17.6 63.7 39 3.7 38.7
21:40 1016 30 845 24.95 17.3 63.1 42 4.3 39.7
21:45 1016 30 845 24.95 16.7 62.1 42 3.9 39
21:50 1016 30 845 24.95 16.6 61.8 44 4.4 40
21:55 1016 30 845 24.95 16.1 61 46 4.7 40.4
22:00 1016 30 845 24.95 15.4 59.7 49 4.7 40.5
22:05 1016 30 845 24.95 14.7 58.5 50 4.4 40
22:10 1016 30 846 24.98 14.8 58.6 49 4.1 39.4
22:15 1016 30 846 24.98 15 58.9 47 3.7 38.7
22:20 1016 30 846 24.98 15.2 59.3 45 3.3 37.9
22:25 1016 30 846 24.98 15.6 60.1 43 3 37.4
22:30 1016 30 846 24.98 16 60.7 41 2.9 37.1
22:35 1016 30 846 24.98 16 60.8 42 3.1 37.5
22:40 1016 30 846 24.98 16 60.8 41 2.9 37.2
22:45 1016 30 846 24.98 16.1 61 41 3.1 37.6
22:50 1016 30 846 24.98 16 60.8 42 3.1 37.6
22:55 1016 30 846 24.98 15.8 60.4 43 3.3 37.9
23:00 1016 30 846 24.98 15.7 60.3 42 2.9 37.3
23:05 1016 30 846 24.98 15.7 60.3 42 3 37.4
23:10 1016 30 846 24.98 15.6 60 47 4.4 39.9
23:15 1016 30 846 24.98 14.5 58 49 4.1 39.4
23:20 1016 30 846 24.98 14.3 57.7 50 4.1 39.5
23:25 1016 30 846 24.98 14.2 57.6 47 3.2 37.8
23:30 1016 30 846 24.98 14.6 58.3 48 3.8 38.9
23:35 1017 30.03 846 24.98 14.5 58.1 47 3.5 38.3
23:40 1017 30.03 846 24.98 14.4 58 49 4 39.1
23:45 1017 30.03 846 24.98 14.2 57.5 49 3.7 38.7
23:50 1017 30.03 846 24.98 14.3 57.8 50 4.1 39.5
23:55 1017 30.03 846 24.98 14.3 57.7 50 4.1 39.3
24:00 1017 30.03 846 24.98 14.2 57.5 51 4.4 39.8